sensor_id;sensor_type;location;lat;lon;timestamp;temperature;humidity
70151;DHT22;57517;43.562;19.540;2022-10-16T00:01:31;256.30;2252.80
70151;DHT22;57517;43.562;19.540;2022-10-16T00:03:58;256.30;2252.80
70151;DHT22;57517;43.562;19.540;2022-10-16T00:06:27;256.30;2252.80
70151;DHT22;57517;43.562;19.540;2022-10-16T00:08:53;256.30;2252.80
70151;DHT22;57517;43.562;19.540;2022-10-16T00:11:28;256.10;2252.80
70151;DHT22;57517;43.562;19.540;2022-10-16T00:13:58;256.10;2252.80
70151;DHT22;57517;43.562;19.540;2022-10-16T00:16:25;256.00;2252.80
70151;DHT22;57517;43.562;19.540;2022-10-16T00:18:51;256.10;2252.80
70151;DHT22;57517;43.562;19.540;2022-10-16T00:21:20;256.20;2252.80
70151;DHT22;57517;43.562;19.540;2022-10-16T00:23:46;256.30;2252.80
70151;DHT22;57517;43.562;19.540;2022-10-16T00:26:15;256.30;2252.80
70151;DHT22;57517;43.562;19.540;2022-10-16T00:28:41;256.20;2252.80
70151;DHT22;57517;43.562;19.540;2022-10-16T00:31:09;256.00;2252.80
70151;DHT22;57517;43.562;19.540;2022-10-16T00:33:36;231.30;2252.80
70151;DHT22;57517;43.562;19.540;2022-10-16T00:36:04;231.30;2252.80
70151;DHT22;57517;43.562;19.540;2022-10-16T00:38:31;256.00;2252.80
70151;DHT22;57517;43.562;19.540;2022-10-16T00:40:57;231.30;2252.80
70151;DHT22;57517;43.562;19.540;2022-10-16T00:43:46;256.10;2252.80
70151;DHT22;57517;43.562;19.540;2022-10-16T00:46:39;256.20;2252.80
70151;DHT22;57517;43.562;19.540;2022-10-16T00:49:16;256.30;2252.80
70151;DHT22;57517;43.562;19.540;2022-10-16T00:51:47;256.30;2252.80
70151;DHT22;57517;43.562;19.540;2022-10-16T00:54:30;256.00;2252.80
70151;DHT22;57517;43.562;19.540;2022-10-16T00:57:01;231.30;2252.80
70151;DHT22;57517;43.562;19.540;2022-10-16T00:59:30;231.20;2252.80
70151;DHT22;57517;43.562;19.540;2022-10-16T01:01:58;231.30;2252.80
70151;DHT22;57517;43.562;19.540;2022-10-16T01:04:25;231.30;2252.80
70151;DHT22;57517;43.562;19.540;2022-10-16T01:15:00;230.60;2252.80
70151;DHT22;57517;43.562;19.540;2022-10-16T01:18:16;230.70;2252.80
70151;DHT22;57517;43.562;19.540;2022-10-16T01:21:08;230.70;2252.80
70151;DHT22;57517;43.562;19.540;2022-10-16T01:29:05;230.70;2252.80
70151;DHT22;57517;43.562;19.540;2022-10-16T01:31:35;230.80;2252.80
70151;DHT22;57517;43.562;19.540;2022-10-16T01:34:19;230.90;2252.80
70151;DHT22;57517;43.562;19.540;2022-10-16T01:36:53;230.90;2252.80
70151;DHT22;57517;43.562;19.540;2022-10-16T01:39:24;230.80;2252.80
70151;DHT22;57517;43.562;19.540;2022-10-16T01:41:56;230.80;2252.80
70151;DHT22;57517;43.562;19.540;2022-10-16T01:44:26;230.90;2252.80
70151;DHT22;57517;43.562;19.540;2022-10-16T01:46:54;230.90;2252.80
70151;DHT22;57517;43.562;19.540;2022-10-16T01:49:23;230.90;2252.80
70151;DHT22;57517;43.562;19.540;2022-10-16T01:51:53;231.00;2252.80
70151;DHT22;57517;43.562;19.540;2022-10-16T01:54:22;231.10;2252.80
70151;DHT22;57517;43.562;19.540;2022-10-16T01:56:50;231.20;2252.80
70151;DHT22;57517;43.562;19.540;2022-10-16T01:59:19;256.00;2252.80
70151;DHT22;57517;43.562;19.540;2022-10-16T02:01:48;256.10;2252.80
70151;DHT22;57517;43.562;19.540;2022-10-16T02:05:08;256.20;2252.80
70151;DHT22;57517;43.562;19.540;2022-10-16T02:07:13;256.20;2252.80
70151;DHT22;57517;43.562;19.540;2022-10-16T02:09:39;256.30;2252.80
70151;DHT22;57517;43.562;19.540;2022-10-16T02:12:11;256.40;2252.80
70151;DHT22;57517;43.562;19.540;2022-10-16T02:14:39;256.20;2252.80
70151;DHT22;57517;43.562;19.540;2022-10-16T02:17:15;256.30;2252.80
70151;DHT22;57517;43.562;19.540;2022-10-16T02:19:42;256.30;2252.80
70151;DHT22;57517;43.562;19.540;2022-10-16T02:22:11;256.40;2252.80
70151;DHT22;57517;43.562;19.540;2022-10-16T02:30:15;256.50;2252.80
70151;DHT22;57517;43.562;19.540;2022-10-16T02:32:46;256.40;2252.80
70151;DHT22;57517;43.562;19.540;2022-10-16T02:35:16;256.50;2252.80
70151;DHT22;57517;43.562;19.540;2022-10-16T02:37:42;256.50;2252.80
70151;DHT22;57517;43.562;19.540;2022-10-16T02:40:09;256.60;2252.80
70151;DHT22;57517;43.562;19.540;2022-10-16T02:42:37;256.40;2252.80
70151;DHT22;57517;43.562;19.540;2022-10-16T02:45:05;256.00;2252.80
70151;DHT22;57517;43.562;19.540;2022-10-16T02:47:31;231.30;2252.80
70151;DHT22;57517;43.562;19.540;2022-10-16T02:49:57;231.20;2252.80
70151;DHT22;57517;43.562;19.540;2022-10-16T02:52:23;231.10;2252.80
70151;DHT22;57517;43.562;19.540;2022-10-16T02:54:48;231.30;2252.80
70151;DHT22;57517;43.562;19.540;2022-10-16T02:57:14;231.30;2252.80
70151;DHT22;57517;43.562;19.540;2022-10-16T02:59:41;231.10;2252.80
70151;DHT22;57517;43.562;19.540;2022-10-16T03:02:07;231.00;2252.80
70151;DHT22;57517;43.562;19.540;2022-10-16T03:04:32;230.90;2252.80
70151;DHT22;57517;43.562;19.540;2022-10-16T03:06:58;230.70;2252.80
70151;DHT22;57517;43.562;19.540;2022-10-16T03:09:24;230.70;2252.80
70151;DHT22;57517;43.562;19.540;2022-10-16T03:11:50;230.60;2252.80
70151;DHT22;57517;43.562;19.540;2022-10-16T03:14:16;230.40;2252.80
70151;DHT22;57517;43.562;19.540;2022-10-16T03:16:42;230.50;2252.80
70151;DHT22;57517;43.562;19.540;2022-10-16T03:19:08;205.70;2252.80
70151;DHT22;57517;43.562;19.540;2022-10-16T03:21:33;230.40;2252.80
70151;DHT22;57517;43.562;19.540;2022-10-16T03:23:59;230.40;2252.80
70151;DHT22;57517;43.562;19.540;2022-10-16T03:26:25;230.70;2252.80
70151;DHT22;57517;43.562;19.540;2022-10-16T03:28:51;230.70;2252.80
70151;DHT22;57517;43.562;19.540;2022-10-16T03:31:16;230.70;2252.80
70151;DHT22;57517;43.562;19.540;2022-10-16T03:33:42;230.80;2252.80
70151;DHT22;57517;43.562;19.540;2022-10-16T03:36:08;230.80;2252.80
70151;DHT22;57517;43.562;19.540;2022-10-16T03:38:34;230.70;2252.80
70151;DHT22;57517;43.562;19.540;2022-10-16T03:40:59;230.70;2252.80
70151;DHT22;57517;43.562;19.540;2022-10-16T03:43:26;230.70;2252.80
70151;DHT22;57517;43.562;19.540;2022-10-16T03:45:51;230.70;2252.80
70151;DHT22;57517;43.562;19.540;2022-10-16T03:48:18;230.90;2252.80
70151;DHT22;57517;43.562;19.540;2022-10-16T03:50:44;230.90;2252.80
70151;DHT22;57517;43.562;19.540;2022-10-16T03:53:11;231.10;2252.80
70151;DHT22;57517;43.562;19.540;2022-10-16T03:55:37;231.30;2252.80
70151;DHT22;57517;43.562;19.540;2022-10-16T03:58:03;231.20;2252.80
70151;DHT22;57517;43.562;19.540;2022-10-16T04:00:28;231.20;2252.80
70151;DHT22;57517;43.562;19.540;2022-10-16T04:02:54;230.90;2252.80
70151;DHT22;57517;43.562;19.540;2022-10-16T04:05:20;230.70;2252.80
70151;DHT22;57517;43.562;19.540;2022-10-16T04:07:46;230.70;2252.80
70151;DHT22;57517;43.562;19.540;2022-10-16T04:10:11;230.70;2252.80
70151;DHT22;57517;43.562;19.540;2022-10-16T04:12:37;230.70;2252.80
70151;DHT22;57517;43.562;19.540;2022-10-16T04:15:03;230.60;2252.80
70151;DHT22;57517;43.562;19.540;2022-10-16T04:17:29;230.70;2252.80
70151;DHT22;57517;43.562;19.540;2022-10-16T04:19:55;230.80;2252.80
70151;DHT22;57517;43.562;19.540;2022-10-16T04:22:20;230.90;2252.80
70151;DHT22;57517;43.562;19.540;2022-10-16T04:24:46;230.90;2252.80
70151;DHT22;57517;43.562;19.540;2022-10-16T04:27:12;230.90;2252.80
70151;DHT22;57517;43.562;19.540;2022-10-16T04:29:38;230.90;2252.80
70151;DHT22;57517;43.562;19.540;2022-10-16T04:32:03;230.70;2252.80
70151;DHT22;57517;43.562;19.540;2022-10-16T04:34:29;230.90;2252.80
70151;DHT22;57517;43.562;19.540;2022-10-16T04:36:55;230.80;2252.80
70151;DHT22;57517;43.562;19.540;2022-10-16T04:39:21;230.70;2252.80
70151;DHT22;57517;43.562;19.540;2022-10-16T04:41:47;230.70;2252.80
70151;DHT22;57517;43.562;19.540;2022-10-16T04:44:13;230.70;2252.80
70151;DHT22;57517;43.562;19.540;2022-10-16T04:46:38;230.60;2252.80
70151;DHT22;57517;43.562;19.540;2022-10-16T04:49:04;230.40;2252.80
70151;DHT22;57517;43.562;19.540;2022-10-16T04:51:30;205.70;2252.80
70151;DHT22;57517;43.562;19.540;2022-10-16T04:53:56;205.50;2252.80
70151;DHT22;57517;43.562;19.540;2022-10-16T04:56:22;205.70;2252.80
70151;DHT22;57517;43.562;19.540;2022-10-16T04:58:48;230.40;2252.80
70151;DHT22;57517;43.562;19.540;2022-10-16T05:01:14;230.50;2252.80
70151;DHT22;57517;43.562;19.540;2022-10-16T05:03:40;230.40;2252.80
70151;DHT22;57517;43.562;19.540;2022-10-16T05:06:06;230.50;2252.80
70151;DHT22;57517;43.562;19.540;2022-10-16T05:08:32;230.70;2252.80
70151;DHT22;57517;43.562;19.540;2022-10-16T05:10:58;230.70;2252.80
70151;DHT22;57517;43.562;19.540;2022-10-16T05:13:24;230.70;2252.80
70151;DHT22;57517;43.562;19.540;2022-10-16T05:15:50;230.70;2252.80
70151;DHT22;57517;43.562;19.540;2022-10-16T05:18:16;230.50;2252.80
70151;DHT22;57517;43.562;19.540;2022-10-16T05:20:42;230.70;2252.80
70151;DHT22;57517;43.562;19.540;2022-10-16T05:23:08;230.90;2252.80
70151;DHT22;57517;43.562;19.540;2022-10-16T05:25:36;230.90;2252.80
70151;DHT22;57517;43.562;19.540;2022-10-16T05:28:02;230.90;2252.80
70151;DHT22;57517;43.562;19.540;2022-10-16T05:30:28;230.60;2252.80
70151;DHT22;57517;43.562;19.540;2022-10-16T05:32:53;230.40;2252.80
70151;DHT22;57517;43.562;19.540;2022-10-16T05:35:19;230.40;2252.80
70151;DHT22;57517;43.562;19.540;2022-10-16T05:37:46;230.40;2252.80
70151;DHT22;57517;43.562;19.540;2022-10-16T05:40:12;205.70;2252.80
70151;DHT22;57517;43.562;19.540;2022-10-16T05:42:39;230.50;2252.80
70151;DHT22;57517;43.562;19.540;2022-10-16T05:45:06;230.60;2252.80
70151;DHT22;57517;43.562;19.540;2022-10-16T05:47:32;230.40;2252.80
70151;DHT22;57517;43.562;19.540;2022-10-16T05:49:58;230.40;2252.80
70151;DHT22;57517;43.562;19.540;2022-10-16T05:52:23;230.60;2252.80
70151;DHT22;57517;43.562;19.540;2022-10-16T05:54:49;230.50;2252.80
70151;DHT22;57517;43.562;19.540;2022-10-16T05:57:15;205.70;2252.80
70151;DHT22;57517;43.562;19.540;2022-10-16T05:59:41;230.40;2252.80
70151;DHT22;57517;43.562;19.540;2022-10-16T06:02:12;205.70;2252.80
70151;DHT22;57517;43.562;19.540;2022-10-16T06:04:39;205.70;2252.80
70151;DHT22;57517;43.562;19.540;2022-10-16T06:07:04;205.70;2252.80
70151;DHT22;57517;43.562;19.540;2022-10-16T06:09:30;230.40;2252.80
70151;DHT22;57517;43.562;19.540;2022-10-16T06:11:56;230.50;2252.80
70151;DHT22;57517;43.562;19.540;2022-10-16T06:14:22;230.50;2252.80
70151;DHT22;57517;43.562;19.540;2022-10-16T06:16:48;230.70;2252.80
70151;DHT22;57517;43.562;19.540;2022-10-16T06:19:13;230.70;2252.80
70151;DHT22;57517;43.562;19.540;2022-10-16T06:21:41;230.80;2252.80
70151;DHT22;57517;43.562;19.540;2022-10-16T06:24:06;230.90;2252.80
70151;DHT22;57517;43.562;19.540;2022-10-16T06:26:32;231.10;2252.80
70151;DHT22;57517;43.562;19.540;2022-10-16T06:28:59;231.30;2252.80
70151;DHT22;57517;43.562;19.540;2022-10-16T06:31:26;256.00;2252.80
70151;DHT22;57517;43.562;19.540;2022-10-16T06:33:55;256.10;2252.80
70151;DHT22;57517;43.562;19.540;2022-10-16T06:36:21;256.00;2252.80
70151;DHT22;57517;43.562;19.540;2022-10-16T06:38:48;231.30;2252.80
70151;DHT22;57517;43.562;19.540;2022-10-16T06:41:17;256.20;2252.80
70151;DHT22;57517;43.562;19.540;2022-10-16T06:43:43;256.30;2252.80
70151;DHT22;57517;43.562;19.540;2022-10-16T06:46:14;256.50;2252.80
70151;DHT22;57517;43.562;19.540;2022-10-16T06:48:40;256.70;2252.80
70151;DHT22;57517;43.562;19.540;2022-10-16T06:51:08;256.80;2252.80
70151;DHT22;57517;43.562;19.540;2022-10-16T06:53:36;256.90;2252.80
70151;DHT22;57517;43.562;19.540;2022-10-16T06:56:10;281.60;2278.40
70151;DHT22;57517;43.562;19.540;2022-10-16T06:58:36;256.90;2252.80
70151;DHT22;57517;43.562;19.540;2022-10-16T07:01:03;256.80;2252.80
70151;DHT22;57517;43.562;19.540;2022-10-16T07:03:29;256.80;2252.80
70151;DHT22;57517;43.562;19.540;2022-10-16T07:05:55;256.80;2252.80
70151;DHT22;57517;43.562;19.540;2022-10-16T07:08:22;256.90;2252.80
70151;DHT22;57517;43.562;19.540;2022-10-16T07:10:47;281.70;2278.40
70151;DHT22;57517;43.562;19.540;2022-10-16T07:13:13;282.00;2278.40
70151;DHT22;57517;43.562;19.540;2022-10-16T07:15:40;282.00;2278.40
70151;DHT22;57517;43.562;19.540;2022-10-16T07:18:06;282.20;2278.40
70151;DHT22;57517;43.562;19.540;2022-10-16T07:20:32;282.40;2278.40
70151;DHT22;57517;43.562;19.540;2022-10-16T07:22:58;307.30;2304.00
70151;DHT22;57517;43.562;19.540;2022-10-16T07:25:24;307.70;2304.00
70151;DHT22;57517;43.562;19.540;2022-10-16T07:27:50;307.80;2304.00
70151;DHT22;57517;43.562;19.540;2022-10-16T07:30:16;332.80;2329.60
70151;DHT22;57517;43.562;19.540;2022-10-16T07:32:41;333.30;2329.60
70151;DHT22;57517;43.562;19.540;2022-10-16T07:35:07;333.60;2304.00
70151;DHT22;57517;43.562;19.540;2022-10-16T07:37:33;384.10;2150.40
70151;DHT22;57517;43.562;19.540;2022-10-16T07:39:59;512.30;1587.20
70151;DHT22;57517;43.562;19.540;2022-10-16T07:42:25;589.50;1254.40
70151;DHT22;57517;43.562;19.540;2022-10-16T07:44:50;564.10;1228.80
70151;DHT22;57517;43.562;19.540;2022-10-16T07:47:16;563.30;1305.60
70151;DHT22;57517;43.562;19.540;2022-10-16T07:49:42;564.00;1254.40
70151;DHT22;57517;43.562;19.540;2022-10-16T07:52:08;588.80;1203.20
70151;DHT22;57517;43.562;19.540;2022-10-16T07:54:33;563.90;1228.80
70151;DHT22;57517;43.562;19.540;2022-10-16T07:56:59;589.10;1203.20
70151;DHT22;57517;43.562;19.540;2022-10-16T07:59:25;691.70;972.80
70151;DHT22;57517;43.562;19.540;2022-10-16T08:01:51;717.30;921.60
70151;DHT22;57517;43.562;19.540;2022-10-16T08:04:16;717.00;896.00
70151;DHT22;57517;43.562;19.540;2022-10-16T08:06:42;742.80;870.40
70151;DHT22;57517;43.562;19.540;2022-10-16T08:09:09;768.10;844.80
70151;DHT22;57517;43.562;19.540;2022-10-16T08:11:34;793.60;819.20
70151;DHT22;57517;43.562;19.540;2022-10-16T08:14:00;819.80;742.40
70151;DHT22;57517;43.562;19.540;2022-10-16T08:16:26;845.00;768.00
70151;DHT22;57517;43.562;19.540;2022-10-16T08:18:52;845.60;716.80
70151;DHT22;57517;43.562;19.540;2022-10-16T08:21:20;870.70;691.20
70151;DHT22;57517;43.562;19.540;2022-10-16T08:23:47;896.00;640.00
70151;DHT22;57517;43.562;19.540;2022-10-16T08:26:13;870.80;665.60
70151;DHT22;57517;43.562;19.540;2022-10-16T08:28:39;845.40;716.80
70151;DHT22;57517;43.562;19.540;2022-10-16T08:31:13;871.10;665.60
70151;DHT22;57517;43.562;19.540;2022-10-16T08:33:41;922.20;640.00
70151;DHT22;57517;43.562;19.540;2022-10-16T08:36:07;947.30;614.40
70151;DHT22;57517;43.562;19.540;2022-10-16T08:38:33;947.50;588.80
70151;DHT22;57517;43.562;19.540;2022-10-16T08:46:15;947.90;588.80
70151;DHT22;57517;43.562;19.540;2022-10-16T08:48:58;921.90;614.40
70151;DHT22;57517;43.562;19.540;2022-10-16T08:51:29;896.90;614.40
70151;DHT22;57517;43.562;19.540;2022-10-16T08:53:58;947.60;588.80
70151;DHT22;57517;43.562;19.540;2022-10-16T08:56:25;972.90;588.80
70151;DHT22;57517;43.562;19.540;2022-10-16T08:58:53;998.40;563.20
70151;DHT22;57517;43.562;19.540;2022-10-16T09:01:21;999.00;563.20
70151;DHT22;57517;43.562;19.540;2022-10-16T09:06:53;998.40;588.80
70151;DHT22;57517;43.562;19.540;2022-10-16T09:12:22;998.40;588.80
70151;DHT22;57517;43.562;19.540;2022-10-16T09:20:26;973.60;563.20
70151;DHT22;57517;43.562;19.540;2022-10-16T09:25:29;999.10;563.20
70151;DHT22;57517;43.562;19.540;2022-10-16T09:27:55;1024.40;537.60
70151;DHT22;57517;43.562;19.540;2022-10-16T09:30:22;973.00;563.20
70151;DHT22;57517;43.562;19.540;2022-10-16T09:32:52;972.90;563.20
70151;DHT22;57517;43.562;19.540;2022-10-16T09:35:36;948.00;563.20
70151;DHT22;57517;43.562;19.540;2022-10-16T09:38:03;921.80;614.40
70151;DHT22;57517;43.562;19.540;2022-10-16T09:45:57;947.30;588.80
70151;DHT22;57517;43.562;19.540;2022-10-16T09:48:27;947.40;588.80
70151;DHT22;57517;43.562;19.540;2022-10-16T09:51:02;922.50;588.80
70151;DHT22;57517;43.562;19.540;2022-10-16T09:53:40;922.30;614.40
70151;DHT22;57517;43.562;19.540;2022-10-16T09:56:06;871.10;665.60
70151;DHT22;57517;43.562;19.540;2022-10-16T09:58:33;820.10;716.80
70151;DHT22;57517;43.562;19.540;2022-10-16T10:00:59;794.00;768.00
70151;DHT22;57517;43.562;19.540;2022-10-16T10:03:38;743.30;819.20
70151;DHT22;57517;43.562;19.540;2022-10-16T10:06:25;717.50;844.80
70151;DHT22;57517;43.562;19.540;2022-10-16T10:09:06;691.30;896.00
70151;DHT22;57517;43.562;19.540;2022-10-16T10:11:46;640.40;998.40
70151;DHT22;57517;43.562;19.540;2022-10-16T10:14:34;614.80;1049.60
70151;DHT22;57517;43.562;19.540;2022-10-16T10:19:36;589.30;1152.00
70151;DHT22;57517;43.562;19.540;2022-10-16T10:24:38;589.30;1177.60
70151;DHT22;57517;43.562;19.540;2022-10-16T10:27:13;588.80;1228.80
70151;DHT22;57517;43.562;19.540;2022-10-16T10:29:44;589.10;1228.80
70151;DHT22;57517;43.562;19.540;2022-10-16T10:32:51;614.40;1228.80
70151;DHT22;57517;43.562;19.540;2022-10-16T10:38:46;640.00;1152.00
70151;DHT22;57517;43.562;19.540;2022-10-16T10:41:49;640.90;1024.00
70151;DHT22;57517;43.562;19.540;2022-10-16T10:52:46;640.00;1049.60
70151;DHT22;57517;43.562;19.540;2022-10-16T11:06:30;589.30;1203.20
70151;DHT22;57517;43.562;19.540;2022-10-16T11:09:26;589.40;1228.80
70151;DHT22;57517;43.562;19.540;2022-10-16T11:11:58;589.20;1228.80
70151;DHT22;57517;43.562;19.540;2022-10-16T11:17:28;589.10;1254.40
70151;DHT22;57517;43.562;19.540;2022-10-16T11:20:52;589.00;1254.40
70151;DHT22;57517;43.562;19.540;2022-10-16T11:23:32;589.00;1280.00
70151;DHT22;57517;43.562;19.540;2022-10-16T11:26:04;588.80;1254.40
70151;DHT22;57517;43.562;19.540;2022-10-16T11:28:36;564.10;1280.00
70151;DHT22;57517;43.562;19.540;2022-10-16T11:31:08;564.10;1280.00
70151;DHT22;57517;43.562;19.540;2022-10-16T11:33:43;564.10;1254.40
70151;DHT22;57517;43.562;19.540;2022-10-16T11:36:25;564.10;1254.40
70151;DHT22;57517;43.562;19.540;2022-10-16T11:39:19;564.00;1254.40
70151;DHT22;57517;43.562;19.540;2022-10-16T11:47:01;564.00;1254.40
70151;DHT22;57517;43.562;19.540;2022-10-16T11:49:32;563.90;1280.00
70151;DHT22;57517;43.562;19.540;2022-10-16T11:55:20;563.70;1228.80
70151;DHT22;57517;43.562;19.540;2022-10-16T11:57:59;563.80;1228.80
70151;DHT22;57517;43.562;19.540;2022-10-16T12:00:45;563.80;1254.40
70151;DHT22;57517;43.562;19.540;2022-10-16T12:03:44;563.80;1254.40
70151;DHT22;57517;43.562;19.540;2022-10-16T12:08:45;563.80;1228.80
70151;DHT22;57517;43.562;19.540;2022-10-16T12:11:31;563.80;1228.80
70151;DHT22;57517;43.562;19.540;2022-10-16T12:16:57;563.80;1203.20
70151;DHT22;57517;43.562;19.540;2022-10-16T12:19:26;563.80;1203.20
70151;DHT22;57517;43.562;19.540;2022-10-16T12:21:59;563.80;1203.20
70151;DHT22;57517;43.562;19.540;2022-10-16T12:24:39;563.80;1203.20
70151;DHT22;57517;43.562;19.540;2022-10-16T12:27:31;563.80;1203.20
70151;DHT22;57517;43.562;19.540;2022-10-16T12:30:03;563.70;1203.20
70151;DHT22;57517;43.562;19.540;2022-10-16T12:32:38;563.70;1228.80
70151;DHT22;57517;43.562;19.540;2022-10-16T12:35:16;563.80;1228.80
70151;DHT22;57517;43.562;19.540;2022-10-16T12:37:44;563.80;1203.20
70151;DHT22;57517;43.562;19.540;2022-10-16T12:40:32;563.70;1228.80
70151;DHT22;57517;43.562;19.540;2022-10-16T12:42:58;563.70;1177.60
70151;DHT22;57517;43.562;19.540;2022-10-16T12:45:30;563.70;1177.60
70151;DHT22;57517;43.562;19.540;2022-10-16T12:47:58;563.70;1152.00
70151;DHT22;57517;43.562;19.540;2022-10-16T12:50:25;563.70;1152.00
70151;DHT22;57517;43.562;19.540;2022-10-16T12:52:51;563.80;1177.60
70151;DHT22;57517;43.562;19.540;2022-10-16T12:55:19;563.80;1177.60
70151;DHT22;57517;43.562;19.540;2022-10-16T12:58:09;563.80;1126.40
70151;DHT22;57517;43.562;19.540;2022-10-16T13:00:54;563.80;1100.80
70151;DHT22;57517;43.562;19.540;2022-10-16T13:04:11;563.80;1152.00
70151;DHT22;57517;43.562;19.540;2022-10-16T13:09:20;563.80;1177.60
70151;DHT22;57517;43.562;19.540;2022-10-16T13:23:09;563.80;1126.40
70151;DHT22;57517;43.562;19.540;2022-10-16T13:26:07;563.80;1152.00
70151;DHT22;57517;43.562;19.540;2022-10-16T13:28:31;563.80;1280.00
70151;DHT22;57517;43.562;19.540;2022-10-16T13:30:59;563.80;1280.00
70151;DHT22;57517;43.562;19.540;2022-10-16T13:33:30;563.70;1305.60
70151;DHT22;57517;43.562;19.540;2022-10-16T13:35:57;563.80;1280.00
70151;DHT22;57517;43.562;19.540;2022-10-16T13:38:29;563.80;1305.60
70151;DHT22;57517;43.562;19.540;2022-10-16T13:41:02;563.80;1228.80
70151;DHT22;57517;43.562;19.540;2022-10-16T13:46:05;563.70;1305.60
70151;DHT22;57517;43.562;19.540;2022-10-16T13:48:33;563.70;1254.40
70151;DHT22;57517;43.562;19.540;2022-10-16T13:51:03;563.70;1305.60
70151;DHT22;57517;43.562;19.540;2022-10-16T13:53:36;563.70;1280.00
70151;DHT22;57517;43.562;19.540;2022-10-16T13:56:04;563.60;1331.20
70151;DHT22;57517;43.562;19.540;2022-10-16T13:58:30;563.70;1382.40
70151;DHT22;57517;43.562;19.540;2022-10-16T14:01:05;563.70;1382.40
70151;DHT22;57517;43.562;19.540;2022-10-16T14:03:33;563.70;1356.80
70151;DHT22;57517;43.562;19.540;2022-10-16T14:06:03;563.60;1356.80
70151;DHT22;57517;43.562;19.540;2022-10-16T14:08:31;563.70;1305.60
70151;DHT22;57517;43.562;19.540;2022-10-16T14:10:59;563.60;1331.20
70151;DHT22;57517;43.562;19.540;2022-10-16T14:13:38;563.60;1356.80
70151;DHT22;57517;43.562;19.540;2022-10-16T14:16:10;563.60;1356.80
70151;DHT22;57517;43.562;19.540;2022-10-16T14:18:41;563.50;1331.20
70151;DHT22;57517;43.562;19.540;2022-10-16T14:21:11;563.50;1331.20
70151;DHT22;57517;43.562;19.540;2022-10-16T14:23:39;563.50;1408.00
70151;DHT22;57517;43.562;19.540;2022-10-16T14:28:35;563.40;1382.40
70151;DHT22;57517;43.562;19.540;2022-10-16T14:31:13;563.30;1408.00
70151;DHT22;57517;43.562;19.540;2022-10-16T14:33:40;563.30;1408.00
70151;DHT22;57517;43.562;19.540;2022-10-16T14:38:35;563.20;1408.00
70151;DHT22;57517;43.562;19.540;2022-10-16T14:41:03;563.20;1408.00
70151;DHT22;57517;43.562;19.540;2022-10-16T14:43:42;538.40;1484.80
70151;DHT22;57517;43.562;19.540;2022-10-16T14:46:13;538.30;1484.80
70151;DHT22;57517;43.562;19.540;2022-10-16T14:48:45;538.30;1510.40
70151;DHT22;57517;43.562;19.540;2022-10-16T14:51:15;538.20;1536.00
70151;DHT22;57517;43.562;19.540;2022-10-16T14:53:41;538.10;1510.40
70151;DHT22;57517;43.562;19.540;2022-10-16T14:56:20;537.90;1536.00
70151;DHT22;57517;43.562;19.540;2022-10-16T14:58:47;537.80;1536.00
70151;DHT22;57517;43.562;19.540;2022-10-16T15:01:13;537.80;1587.20
70151;DHT22;57517;43.562;19.540;2022-10-16T15:03:39;537.60;1638.40
70151;DHT22;57517;43.562;19.540;2022-10-16T15:06:13;512.90;1638.40
70151;DHT22;57517;43.562;19.540;2022-10-16T15:08:41;512.90;1612.80
70151;DHT22;57517;43.562;19.540;2022-10-16T15:11:16;512.70;1638.40
70151;DHT22;57517;43.562;19.540;2022-10-16T15:13:42;512.60;1689.60
70151;DHT22;57517;43.562;19.540;2022-10-16T15:16:12;512.50;1715.20
70151;DHT22;57517;43.562;19.540;2022-10-16T15:18:38;512.40;1766.40
70151;DHT22;57517;43.562;19.540;2022-10-16T15:21:04;512.40;1740.80
70151;DHT22;57517;43.562;19.540;2022-10-16T15:23:30;512.30;1715.20
70151;DHT22;57517;43.562;19.540;2022-10-16T15:25:56;512.00;1740.80
70151;DHT22;57517;43.562;19.540;2022-10-16T15:28:23;487.30;1766.40
70151;DHT22;57517;43.562;19.540;2022-10-16T15:30:51;487.30;1817.60
70151;DHT22;57517;43.562;19.540;2022-10-16T15:33:20;487.20;1868.80
70151;DHT22;57517;43.562;19.540;2022-10-16T15:35:47;487.00;1894.40
70151;DHT22;57517;43.562;19.540;2022-10-16T15:38:14;487.00;1894.40
70151;DHT22;57517;43.562;19.540;2022-10-16T15:40:40;487.00;1945.60
70151;DHT22;57517;43.562;19.540;2022-10-16T15:43:07;487.00;1945.60
70151;DHT22;57517;43.562;19.540;2022-10-16T15:45:33;487.00;1894.40
70151;DHT22;57517;43.562;19.540;2022-10-16T15:47:59;487.00;1894.40
70151;DHT22;57517;43.562;19.540;2022-10-16T15:50:25;487.00;1894.40
70151;DHT22;57517;43.562;19.540;2022-10-16T15:52:51;486.80;1817.60
70151;DHT22;57517;43.562;19.540;2022-10-16T15:55:17;486.70;1868.80
70151;DHT22;57517;43.562;19.540;2022-10-16T15:57:45;486.60;1868.80
70151;DHT22;57517;43.562;19.540;2022-10-16T16:00:17;486.40;1920.00
70151;DHT22;57517;43.562;19.540;2022-10-16T16:02:44;486.50;1945.60
70151;DHT22;57517;43.562;19.540;2022-10-16T16:05:14;486.50;1996.80
70151;DHT22;57517;43.562;19.540;2022-10-16T16:07:40;486.50;1971.20
70151;DHT22;57517;43.562;19.540;2022-10-16T16:10:08;486.40;1971.20
70151;DHT22;57517;43.562;19.540;2022-10-16T16:12:34;461.70;2022.40
70151;DHT22;57517;43.562;19.540;2022-10-16T16:15:00;461.60;2048.00
70151;DHT22;57517;43.562;19.540;2022-10-16T16:17:26;461.60;2022.40
70151;DHT22;57517;43.562;19.540;2022-10-16T16:19:52;461.50;2048.00
70151;DHT22;57517;43.562;19.540;2022-10-16T16:22:18;461.60;2048.00
70151;DHT22;57517;43.562;19.540;2022-10-16T16:24:44;461.60;2022.40
70151;DHT22;57517;43.562;19.540;2022-10-16T16:27:09;461.50;2048.00
70151;DHT22;57517;43.562;19.540;2022-10-16T16:29:35;461.50;2073.60
70151;DHT22;57517;43.562;19.540;2022-10-16T16:32:02;461.30;2048.00
70151;DHT22;57517;43.562;19.540;2022-10-16T16:34:28;461.00;2073.60
70151;DHT22;57517;43.562;19.540;2022-10-16T16:36:55;460.80;2099.20
70151;DHT22;57517;43.562;19.540;2022-10-16T16:39:22;436.10;2099.20
70151;DHT22;57517;43.562;19.540;2022-10-16T16:41:48;436.00;2124.80